ADDS METAR Data INFO
IDs: Format: Raw Decoded Include TAF

Data at: 0528 UTC 11 Dec 2017

KVIS 110456Z AUTO 11004KT 4SM HZ CLR 06/02 A3027 RMK AO2 SLP259 T00560017
KVIS 110356Z AUTO 00000KT 4SM HZ CLR 05/02 A3025 RMK AO2 SLP254 T00500022
KVIS 110256Z AUTO 00000KT 5SM HZ CLR 08/01 A3025 RMK AO2 SLP253 T00780011 53004
KVIS 110156Z AUTO 27003KT 6SM HZ CLR 11/02 A3024 RMK AO2 SLP249 T01110022
KVIS 110056Z AUTO 00000KT 5SM HZ CLR 13/02 A3023 RMK AO2 SLP248 T01280017
KVIS 102356Z AUTO 34003KT 5SM HZ CLR 16/02 A3023 RMK AO2 SLP248 T01560022 10172 20094 56010
KVIS 102256Z AUTO 04005KT 5SM HZ CLR 17/02 A3024 RMK AO2 SLP250 T01720022
KVIS 102156Z AUTO 03005KT 5SM HZ CLR 17/02 A3025 RMK AO2 SLP253 T01670022
KVIS 102056Z AUTO 32004KT 4SM HZ CLR 16/03 A3026 RMK AO2 SLP259 T01610028 58027
KVIS 101956Z AUTO 00000KT 4SM HZ CLR 14/03 A3029 RMK AO2 SLP267 T01390028
KVIS 101856Z AUTO 00000KT 4SM HZ CLR 12/03 A3032 RMK AO2 SLP278 T01170028
KVIS 101647Z AUTO 14004KT 3SM HZ CLR 05/01 A3034 RMK AO2
KVIS 101556Z AUTO 10003KT 2 1/2SM BR CLR 02/01 A3033 RMK AO2 SLP282 T00170006 FZRANO
KVIS 101456Z AUTO 11003KT 2 1/2SM BR CLR 00/M01 A3033 RMK AO2 SLP280 T00001011 51005 FZRANO
KVIS 101356Z AUTO 10004KT 3SM BR CLR 00/M01 A3032 RMK AO2 SLP278 T00001011 FZRANO
KVIS 101256Z AUTO 00000KT 3SM BR CLR 01/M01 A3032 RMK AO2 SLP277 T00061006 FZRANO
KVIS 101205Z AUTO 15006KT 3SM BR CLR 01/M01 A3032 RMK AO2 FZRANO
KVIS 101156Z AUTO 16006KT 2 1/2SM BR CLR 00/M01 A3031 RMK AO2 SLP275 T00001011 10056 20000 53001 FZRANO
KVIS 101109Z AUTO 17003KT 2 1/2SM BR CLR 01/00 A3031 RMK AO2 FZRANO
KVIS 101056Z AUTO 17003KT 3SM BR CLR 02/00 A3031 RMK AO2 SLP275 T00170000 FZRANO
KVIS 101022Z AUTO 00000KT 2 1/2SM BR CLR 02/00 A3031 RMK AO2 FZRANO
KVIS 100956Z AUTO 00000KT 3SM BR CLR 03/01 A3031 RMK AO2 SLP275 T00280006
KVIS 100856Z AUTO 07003KT 2 1/2SM BR CLR 03/01 A3032 RMK AO2 SLP277 T00280006 56006
KVIS 100854Z AUTO 05004KT 2 1/2SM BR CLR 03/01 A3032 RMK AO2
KVIS 100756Z AUTO 00000KT 3SM BR CLR 03/01 A3033 RMK AO2 SLP281 T00330011 401720000
KVIS 100656Z AUTO 00000KT 3SM BR CLR 04/02 A3034 RMK AO2 SLP282 T00390017
KVIS 100556Z AUTO 12004KT 4SM HZ CLR 06/02 A3032 RMK AO2 SLP278 T00560022 10161 20050 51005